sensor_id;sensor_type;location;lat;lon;timestamp;P1;durP1;ratioP1;P2;durP2;ratioP2
17890;SDS011;9071;48.220;14.480;2023-04-25T00:02:15;5.17;;;3.80;;
17890;SDS011;9071;48.220;14.480;2023-04-25T00:07:19;7.07;;;4.30;;
17890;SDS011;9071;48.220;14.480;2023-04-25T00:12:21;6.77;;;3.83;;
17890;SDS011;9071;48.220;14.480;2023-04-25T00:17:24;4.93;;;3.80;;
17890;SDS011;9071;48.220;14.480;2023-04-25T00:22:28;5.00;;;3.60;;
17890;SDS011;9071;48.220;14.480;2023-04-25T00:27:30;4.70;;;3.73;;
17890;SDS011;9071;48.220;14.480;2023-04-25T00:32:32;6.93;;;3.80;;
17890;SDS011;9071;48.220;14.480;2023-04-25T00:37:35;4.13;;;3.40;;
17890;SDS011;9071;48.220;14.480;2023-04-25T00:42:38;5.93;;;3.10;;
17890;SDS011;9071;48.220;14.480;2023-04-25T00:47:41;3.93;;;3.00;;
17890;SDS011;9071;48.220;14.480;2023-04-25T00:52:45;4.63;;;3.37;;
17890;SDS011;9071;48.220;14.480;2023-04-25T00:57:47;6.33;;;3.53;;
17890;SDS011;9071;48.220;14.480;2023-04-25T01:02:50;3.50;;;3.10;;
17890;SDS011;9071;48.220;14.480;2023-04-25T01:07:54;4.20;;;3.20;;
17890;SDS011;9071;48.220;14.480;2023-04-25T01:12:56;4.63;;;2.90;;
17890;SDS011;9071;48.220;14.480;2023-04-25T01:17:58;5.07;;;3.10;;
17890;SDS011;9071;48.220;14.480;2023-04-25T01:23:02;3.80;;;3.13;;
17890;SDS011;9071;48.220;14.480;2023-04-25T01:28:04;4.10;;;3.10;;
17890;SDS011;9071;48.220;14.480;2023-04-25T01:33:08;5.33;;;3.30;;
17890;SDS011;9071;48.220;14.480;2023-04-25T01:38:11;4.13;;;2.80;;
17890;SDS011;9071;48.220;14.480;2023-04-25T01:43:14;4.43;;;3.60;;
17890;SDS011;9071;48.220;14.480;2023-04-25T01:48:16;5.33;;;3.50;;
17890;SDS011;9071;48.220;14.480;2023-04-25T01:53:20;4.17;;;3.50;;
17890;SDS011;9071;48.220;14.480;2023-04-25T01:58:22;3.30;;;3.00;;
17890;SDS011;9071;48.220;14.480;2023-04-25T02:03:24;5.03;;;3.33;;
17890;SDS011;9071;48.220;14.480;2023-04-25T02:08:28;5.53;;;3.40;;
17890;SDS011;9071;48.220;14.480;2023-04-25T02:13:31;5.17;;;3.57;;
17890;SDS011;9071;48.220;14.480;2023-04-25T02:18:33;4.83;;;3.00;;
17890;SDS011;9071;48.220;14.480;2023-04-25T02:23:38;3.97;;;3.43;;
17890;SDS011;9071;48.220;14.480;2023-04-25T02:28:40;4.93;;;3.87;;
17890;SDS011;9071;48.220;14.480;2023-04-25T02:33:42;6.50;;;5.07;;
17890;SDS011;9071;48.220;14.480;2023-04-25T02:38:46;6.10;;;4.90;;
17890;SDS011;9071;48.220;14.480;2023-04-25T02:43:48;7.03;;;4.40;;
17890;SDS011;9071;48.220;14.480;2023-04-25T02:48:50;6.23;;;4.50;;
17890;SDS011;9071;48.220;14.480;2023-04-25T02:53:53;5.43;;;4.40;;
17890;SDS011;9071;48.220;14.480;2023-04-25T02:58:55;7.93;;;4.20;;
17890;SDS011;9071;48.220;14.480;2023-04-25T03:03:57;6.17;;;4.30;;
17890;SDS011;9071;48.220;14.480;2023-04-25T03:09:01;8.83;;;4.10;;
17890;SDS011;9071;48.220;14.480;2023-04-25T03:14:03;6.07;;;4.37;;
17890;SDS011;9071;48.220;14.480;2023-04-25T03:19:06;6.63;;;5.10;;
17890;SDS011;9071;48.220;14.480;2023-04-25T03:24:09;6.53;;;4.40;;
17890;SDS011;9071;48.220;14.480;2023-04-25T03:29:12;6.53;;;4.73;;
17890;SDS011;9071;48.220;14.480;2023-04-25T03:34:14;8.63;;;5.00;;
17890;SDS011;9071;48.220;14.480;2023-04-25T03:39:17;6.60;;;5.20;;
17890;SDS011;9071;48.220;14.480;2023-04-25T03:44:19;7.50;;;5.13;;
17890;SDS011;9071;48.220;14.480;2023-04-25T03:49:21;8.53;;;5.93;;
17890;SDS011;9071;48.220;14.480;2023-04-25T03:54:25;13.50;;;7.83;;
17890;SDS011;9071;48.220;14.480;2023-04-25T03:59:27;9.90;;;7.00;;
17890;SDS011;9071;48.220;14.480;2023-04-25T04:04:29;9.53;;;6.70;;
17890;SDS011;9071;48.220;14.480;2023-04-25T04:09:32;8.27;;;6.47;;
17890;SDS011;9071;48.220;14.480;2023-04-25T04:14:34;8.43;;;6.30;;
17890;SDS011;9071;48.220;14.480;2023-04-25T04:19:37;9.00;;;6.77;;
17890;SDS011;9071;48.220;14.480;2023-04-25T04:24:40;9.93;;;7.40;;
17890;SDS011;9071;48.220;14.480;2023-04-25T04:29:43;10.33;;;6.93;;
17890;SDS011;9071;48.220;14.480;2023-04-25T04:34:46;11.47;;;6.53;;
17890;SDS011;9071;48.220;14.480;2023-04-25T04:39:50;11.07;;;6.80;;
17890;SDS011;9071;48.220;14.480;2023-04-25T04:44:52;9.93;;;7.13;;
17890;SDS011;9071;48.220;14.480;2023-04-25T04:49:55;12.93;;;8.93;;
17890;SDS011;9071;48.220;14.480;2023-04-25T04:54:58;10.60;;;8.83;;
17890;SDS011;9071;48.220;14.480;2023-04-25T05:00:00;12.37;;;8.63;;
17890;SDS011;9071;48.220;14.480;2023-04-25T05:05:05;13.67;;;9.23;;
17890;SDS011;9071;48.220;14.480;2023-04-25T05:10:09;17.57;;;8.87;;
17890;SDS011;9071;48.220;14.480;2023-04-25T05:15:11;12.93;;;8.67;;
17890;SDS011;9071;48.220;14.480;2023-04-25T05:20:15;9.30;;;7.40;;
17890;SDS011;9071;48.220;14.480;2023-04-25T05:25:20;9.57;;;6.80;;
17890;SDS011;9071;48.220;14.480;2023-04-25T05:30:22;10.67;;;6.63;;
17890;SDS011;9071;48.220;14.480;2023-04-25T05:35:24;8.77;;;5.43;;
17890;SDS011;9071;48.220;14.480;2023-04-25T05:40:27;6.87;;;4.67;;
17890;SDS011;9071;48.220;14.480;2023-04-25T05:45:29;6.17;;;4.23;;
17890;SDS011;9071;48.220;14.480;2023-04-25T05:50:32;5.77;;;4.20;;
17890;SDS011;9071;48.220;14.480;2023-04-25T05:55:35;6.40;;;3.87;;
17890;SDS011;9071;48.220;14.480;2023-04-25T06:00:37;7.20;;;4.50;;
17890;SDS011;9071;48.220;14.480;2023-04-25T06:05:41;6.63;;;4.43;;
17890;SDS011;9071;48.220;14.480;2023-04-25T06:10:45;6.80;;;4.33;;
17890;SDS011;9071;48.220;14.480;2023-04-25T06:15:47;7.93;;;4.40;;
17890;SDS011;9071;48.220;14.480;2023-04-25T06:20:49;7.93;;;4.22;;
17890;SDS011;9071;48.220;14.480;2023-04-25T06:25:52;4.50;;;3.40;;
17890;SDS011;9071;48.220;14.480;2023-04-25T06:30:54;5.80;;;3.17;;
17890;SDS011;9071;48.220;14.480;2023-04-25T06:35:57;3.88;;;2.85;;
17890;SDS011;9071;48.220;14.480;2023-04-25T06:41:00;3.60;;;2.80;;
17890;SDS011;9071;48.220;14.480;2023-04-25T06:46:02;5.53;;;2.97;;
17890;SDS011;9071;48.220;14.480;2023-04-25T06:51:04;7.32;;;3.17;;
17890;SDS011;9071;48.220;14.480;2023-04-25T06:56:08;7.55;;;2.90;;
17890;SDS011;9071;48.220;14.480;2023-04-25T07:01:10;5.63;;;2.80;;
17890;SDS011;9071;48.220;14.480;2023-04-25T07:06:12;7.40;;;2.80;;
17890;SDS011;9071;48.220;14.480;2023-04-25T07:11:18;5.80;;;2.63;;
17890;SDS011;9071;48.220;14.480;2023-04-25T07:16:20;5.05;;;2.70;;
17890;SDS011;9071;48.220;14.480;2023-04-25T07:21:22;4.35;;;2.50;;
17890;SDS011;9071;48.220;14.480;2023-04-25T07:26:26;4.25;;;2.38;;
17890;SDS011;9071;48.220;14.480;2023-04-25T07:31:28;3.65;;;2.70;;
17890;SDS011;9071;48.220;14.480;2023-04-25T07:36:30;6.97;;;2.30;;
17890;SDS011;9071;48.220;14.480;2023-04-25T07:41:33;3.05;;;2.53;;
17890;SDS011;9071;48.220;14.480;2023-04-25T07:46:36;3.00;;;2.70;;
17890;SDS011;9071;48.220;14.480;2023-04-25T07:51:38;3.83;;;2.80;;
17890;SDS011;9071;48.220;14.480;2023-04-25T07:56:42;5.03;;;3.00;;
17890;SDS011;9071;48.220;14.480;2023-04-25T08:01:44;4.65;;;3.40;;
17890;SDS011;9071;48.220;14.480;2023-04-25T08:06:46;5.75;;;3.38;;
17890;SDS011;9071;48.220;14.480;2023-04-25T08:11:50;5.27;;;3.57;;
17890;SDS011;9071;48.220;14.480;2023-04-25T08:16:52;4.20;;;3.50;;
17890;SDS011;9071;48.220;14.480;2023-04-25T08:21:54;5.40;;;3.40;;
17890;SDS011;9071;48.220;14.480;2023-04-25T08:26:57;5.07;;;3.40;;
17890;SDS011;9071;48.220;14.480;2023-04-25T08:32:00;3.27;;;2.80;;
17890;SDS011;9071;48.220;14.480;2023-04-25T08:37:02;9.87;;;4.10;;
17890;SDS011;9071;48.220;14.480;2023-04-25T08:42:07;5.90;;;3.23;;
17890;SDS011;9071;48.220;14.480;2023-04-25T08:47:09;3.67;;;3.17;;
17890;SDS011;9071;48.220;14.480;2023-04-25T08:52:11;4.87;;;2.37;;
17890;SDS011;9071;48.220;14.480;2023-04-25T08:57:16;2.33;;;2.13;;
17890;SDS011;9071;48.220;14.480;2023-04-25T09:02:19;4.93;;;2.43;;
17890;SDS011;9071;48.220;14.480;2023-04-25T09:07:21;4.87;;;2.50;;
17890;SDS011;9071;48.220;14.480;2023-04-25T09:12:27;3.47;;;2.00;;
17890;SDS011;9071;48.220;14.480;2023-04-25T09:17:30;4.60;;;2.88;;
17890;SDS011;9071;48.220;14.480;2023-04-25T09:22:32;3.83;;;2.83;;
17890;SDS011;9071;48.220;14.480;2023-04-25T09:27:37;2.63;;;2.30;;
17890;SDS011;9071;48.220;14.480;2023-04-25T09:32:52;3.27;;;2.60;;
17890;SDS011;9071;48.220;14.480;2023-04-25T09:37:58;7.30;;;3.30;;
17890;SDS011;9071;48.220;14.480;2023-04-25T09:43:01;4.18;;;2.75;;
17890;SDS011;9071;48.220;14.480;2023-04-25T09:48:04;3.00;;;2.42;;
17890;SDS011;9071;48.220;14.480;2023-04-25T09:53:07;4.18;;;2.63;;
17890;SDS011;9071;48.220;14.480;2023-04-25T09:58:10;4.60;;;2.88;;
17890;SDS011;9071;48.220;14.480;2023-04-25T10:03:14;3.75;;;2.58;;
17890;SDS011;9071;48.220;14.480;2023-04-25T10:08:18;4.80;;;2.83;;
17890;SDS011;9071;48.220;14.480;2023-04-25T10:13:22;4.30;;;2.50;;
17890;SDS011;9071;48.220;14.480;2023-04-25T10:18:25;3.60;;;2.50;;
17890;SDS011;9071;48.220;14.480;2023-04-25T10:23:29;4.40;;;2.83;;
17890;SDS011;9071;48.220;14.480;2023-04-25T10:28:40;10.38;;;2.70;;
17890;SDS011;9071;48.220;14.480;2023-04-25T10:33:56;6.05;;;2.40;;
17890;SDS011;9071;48.220;14.480;2023-04-25T10:39:08;3.97;;;2.40;;
17890;SDS011;9071;48.220;14.480;2023-04-25T10:44:11;2.60;;;1.77;;
17890;SDS011;9071;48.220;14.480;2023-04-25T10:49:31;3.97;;;2.10;;
17890;SDS011;9071;48.220;14.480;2023-04-25T10:54:34;6.37;;;2.30;;
17890;SDS011;9071;48.220;14.480;2023-04-25T10:59:37;4.00;;;2.00;;
17890;SDS011;9071;48.220;14.480;2023-04-25T11:04:41;2.90;;;1.70;;
17890;SDS011;9071;48.220;14.480;2023-04-25T11:09:45;5.87;;;2.20;;
17890;SDS011;9071;48.220;14.480;2023-04-25T11:14:48;3.90;;;2.40;;
17890;SDS011;9071;48.220;14.480;2023-04-25T11:19:50;4.23;;;2.00;;
17890;SDS011;9071;48.220;14.480;2023-04-25T11:24:53;3.37;;;1.90;;
17890;SDS011;9071;48.220;14.480;2023-04-25T11:29:56;2.90;;;2.20;;
17890;SDS011;9071;48.220;14.480;2023-04-25T11:34:58;7.43;;;1.70;;
17890;SDS011;9071;48.220;14.480;2023-04-25T11:40:00;3.93;;;1.60;;
17890;SDS011;9071;48.220;14.480;2023-04-25T11:45:05;2.03;;;1.60;;
17890;SDS011;9071;48.220;14.480;2023-04-25T11:50:09;3.70;;;1.73;;
17890;SDS011;9071;48.220;14.480;2023-04-25T11:55:12;3.07;;;1.90;;
17890;SDS011;9071;48.220;14.480;2023-04-25T12:00:17;2.90;;;2.07;;
17890;SDS011;9071;48.220;14.480;2023-04-25T12:05:23;1.33;;;1.20;;
17890;SDS011;9071;48.220;14.480;2023-04-25T12:10:26;3.63;;;1.90;;
17890;SDS011;9071;48.220;14.480;2023-04-25T12:15:30;2.77;;;2.10;;
17890;SDS011;9071;48.220;14.480;2023-04-25T12:20:35;2.00;;;1.80;;
17890;SDS011;9071;48.220;14.480;2023-04-25T12:25:38;3.70;;;2.17;;
17890;SDS011;9071;48.220;14.480;2023-04-25T12:30:56;3.77;;;1.40;;
17890;SDS011;9071;48.220;14.480;2023-04-25T12:36:01;8.83;;;2.00;;
17890;SDS011;9071;48.220;14.480;2023-04-25T12:41:08;3.67;;;1.47;;
17890;SDS011;9071;48.220;14.480;2023-04-25T12:46:12;3.97;;;1.70;;
17890;SDS011;9071;48.220;14.480;2023-04-25T12:51:14;3.67;;;2.10;;
17890;SDS011;9071;48.220;14.480;2023-04-25T12:56:16;2.47;;;1.40;;
17890;SDS011;9071;48.220;14.480;2023-04-25T13:01:20;4.17;;;1.77;;
17890;SDS011;9071;48.220;14.480;2023-04-25T13:06:22;2.43;;;1.60;;
17890;SDS011;9071;48.220;14.480;2023-04-25T13:11:24;2.60;;;1.00;;
17890;SDS011;9071;48.220;14.480;2023-04-25T13:16:27;4.47;;;1.30;;
17890;SDS011;9071;48.220;14.480;2023-04-25T13:21:30;5.30;;;1.37;;
17890;SDS011;9071;48.220;14.480;2023-04-25T13:26:33;1.50;;;1.00;;
17890;SDS011;9071;48.220;14.480;2023-04-25T13:31:37;1.67;;;1.20;;
17890;SDS011;9071;48.220;14.480;2023-04-25T13:36:39;3.33;;;1.37;;
17890;SDS011;9071;48.220;14.480;2023-04-25T13:41:41;5.20;;;1.30;;
17890;SDS011;9071;48.220;14.480;2023-04-25T13:46:44;2.13;;;1.03;;
17890;SDS011;9071;48.220;14.480;2023-04-25T13:51:46;2.93;;;1.10;;
17890;SDS011;9071;48.220;14.480;2023-04-25T13:56:49;4.63;;;1.80;;
17890;SDS011;9071;48.220;14.480;2023-04-25T14:01:53;5.20;;;1.77;;
17890;SDS011;9071;48.220;14.480;2023-04-25T14:06:55;2.63;;;1.80;;
17890;SDS011;9071;48.220;14.480;2023-04-25T14:11:57;3.90;;;2.20;;
17890;SDS011;9071;48.220;14.480;2023-04-25T14:17:01;1.90;;;1.80;;
17890;SDS011;9071;48.220;14.480;2023-04-25T14:22:04;4.47;;;2.77;;
17890;SDS011;9071;48.220;14.480;2023-04-25T14:27:06;2.60;;;1.80;;
17890;SDS011;9071;48.220;14.480;2023-04-25T14:32:09;3.77;;;2.13;;
17890;SDS011;9071;48.220;14.480;2023-04-25T14:37:11;3.83;;;1.80;;
17890;SDS011;9071;48.220;14.480;2023-04-25T14:42:14;1.60;;;1.40;;
17890;SDS011;9071;48.220;14.480;2023-04-25T14:47:17;1.50;;;1.40;;
17890;SDS011;9071;48.220;14.480;2023-04-25T14:52:19;2.77;;;1.80;;
17890;SDS011;9071;48.220;14.480;2023-04-25T14:57:22;1.63;;;1.53;;
17890;SDS011;9071;48.220;14.480;2023-04-25T15:02:25;3.93;;;1.50;;
17890;SDS011;9071;48.220;14.480;2023-04-25T15:07:27;1.63;;;1.40;;
17890;SDS011;9071;48.220;14.480;2023-04-25T15:12:29;3.33;;;1.57;;
17890;SDS011;9071;48.220;14.480;2023-04-25T15:17:33;1.63;;;1.33;;
17890;SDS011;9071;48.220;14.480;2023-04-25T15:22:35;2.07;;;1.87;;
17890;SDS011;9071;48.220;14.480;2023-04-25T15:27:38;1.73;;;1.53;;
17890;SDS011;9071;48.220;14.480;2023-04-25T15:32:45;2.90;;;2.00;;
17890;SDS011;9071;48.220;14.480;2023-04-25T15:37:47;1.50;;;1.40;;
17890;SDS011;9071;48.220;14.480;2023-04-25T15:42:52;1.30;;;1.20;;
17890;SDS011;9071;48.220;14.480;2023-04-25T15:47:55;2.10;;;0.60;;
17890;SDS011;9071;48.220;14.480;2023-04-25T15:52:57;0.90;;;0.87;;
17890;SDS011;9071;48.220;14.480;2023-04-25T15:58:00;0.90;;;0.70;;
17890;SDS011;9071;48.220;14.480;2023-04-25T16:03:04;1.27;;;0.67;;
17890;SDS011;9071;48.220;14.480;2023-04-25T16:08:06;1.63;;;0.90;;
17890;SDS011;9071;48.220;14.480;2023-04-25T16:13:08;2.73;;;2.10;;
17890;SDS011;9071;48.220;14.480;2023-04-25T16:18:12;2.70;;;1.70;;
17890;SDS011;9071;48.220;14.480;2023-04-25T16:23:14;1.57;;;0.50;;
17890;SDS011;9071;48.220;14.480;2023-04-25T16:28:17;2.30;;;1.60;;
17890;SDS011;9071;48.220;14.480;2023-04-25T16:33:20;2.50;;;1.10;;
17890;SDS011;9071;48.220;14.480;2023-04-25T16:38:22;2.63;;;1.20;;
17890;SDS011;9071;48.220;14.480;2023-04-25T16:43:24;3.53;;;1.80;;
17890;SDS011;9071;48.220;14.480;2023-04-25T16:48:28;1.17;;;1.00;;
17890;SDS011;9071;48.220;14.480;2023-04-25T16:53:30;2.60;;;1.93;;
17890;SDS011;9071;48.220;14.480;2023-04-25T16:58:32;2.23;;;2.03;;
17890;SDS011;9071;48.220;14.480;2023-04-25T17:03:36;5.40;;;1.50;;
17890;SDS011;9071;48.220;14.480;2023-04-25T17:08:38;2.70;;;1.40;;
17890;SDS011;9071;48.220;14.480;2023-04-25T17:13:41;1.50;;;1.30;;
17890;SDS011;9071;48.220;14.480;2023-04-25T17:18:45;2.57;;;1.43;;
17890;SDS011;9071;48.220;14.480;2023-04-25T17:23:47;1.73;;;1.60;;
17890;SDS011;9071;48.220;14.480;2023-04-25T17:28:49;2.20;;;2.00;;
17890;SDS011;9071;48.220;14.480;2023-04-25T17:33:53;2.53;;;1.77;;
17890;SDS011;9071;48.220;14.480;2023-04-25T17:38:56;2.00;;;1.70;;
17890;SDS011;9071;48.220;14.480;2023-04-25T17:43:58;2.73;;;1.83;;
17890;SDS011;9071;48.220;14.480;2023-04-25T17:49:02;4.00;;;2.10;;
17890;SDS011;9071;48.220;14.480;2023-04-25T17:54:04;4.63;;;2.10;;
17890;SDS011;9071;48.220;14.480;2023-04-25T17:59:07;2.63;;;1.43;;
17890;SDS011;9071;48.220;14.480;2023-04-25T18:04:11;4.87;;;2.10;;
17890;SDS011;9071;48.220;14.480;2023-04-25T18:09:13;5.27;;;2.23;;
17890;SDS011;9071;48.220;14.480;2023-04-25T18:14:20;5.87;;;3.70;;
17890;SDS011;9071;48.220;14.480;2023-04-25T18:19:25;4.63;;;3.50;;
17890;SDS011;9071;48.220;14.480;2023-04-25T18:24:27;5.77;;;3.63;;
17890;SDS011;9071;48.220;14.480;2023-04-25T18:29:29;6.30;;;4.73;;
17890;SDS011;9071;48.220;14.480;2023-04-25T18:34:33;6.10;;;3.90;;
17890;SDS011;9071;48.220;14.480;2023-04-25T18:39:35;6.40;;;4.77;;
17890;SDS011;9071;48.220;14.480;2023-04-25T18:44:37;6.17;;;4.20;;
17890;SDS011;9071;48.220;14.480;2023-04-25T18:49:41;7.03;;;4.07;;
17890;SDS011;9071;48.220;14.480;2023-04-25T18:54:43;4.53;;;3.90;;
17890;SDS011;9071;48.220;14.480;2023-04-25T18:59:46;5.27;;;4.07;;
17890;SDS011;9071;48.220;14.480;2023-04-25T19:04:49;6.40;;;4.27;;
17890;SDS011;9071;48.220;14.480;2023-04-25T19:09:52;6.10;;;4.77;;
17890;SDS011;9071;48.220;14.480;2023-04-25T19:14:54;5.83;;;4.43;;
17890;SDS011;9071;48.220;14.480;2023-04-25T19:19:57;6.17;;;4.10;;
17890;SDS011;9071;48.220;14.480;2023-04-25T19:25:00;6.37;;;4.40;;
17890;SDS011;9071;48.220;14.480;2023-04-25T19:30:02;6.50;;;4.33;;
17890;SDS011;9071;48.220;14.480;2023-04-25T19:35:10;7.23;;;4.03;;
17890;SDS011;9071;48.220;14.480;2023-04-25T19:40:13;6.43;;;4.67;;
17890;SDS011;9071;48.220;14.480;2023-04-25T19:45:15;6.30;;;4.80;;
17890;SDS011;9071;48.220;14.480;2023-04-25T19:50:19;5.37;;;4.40;;
17890;SDS011;9071;48.220;14.480;2023-04-25T19:55:21;7.30;;;4.70;;
17890;SDS011;9071;48.220;14.480;2023-04-25T20:00:23;5.47;;;4.33;;
17890;SDS011;9071;48.220;14.480;2023-04-25T20:05:27;6.23;;;4.43;;
17890;SDS011;9071;48.220;14.480;2023-04-25T20:10:29;10.47;;;4.70;;
17890;SDS011;9071;48.220;14.480;2023-04-25T20:15:31;5.70;;;4.03;;
17890;SDS011;9071;48.220;14.480;2023-04-25T20:20:34;6.30;;;4.47;;
17890;SDS011;9071;48.220;14.480;2023-04-25T20:25:36;5.67;;;3.67;;
17890;SDS011;9071;48.220;14.480;2023-04-25T20:30:38;8.47;;;5.13;;
17890;SDS011;9071;48.220;14.480;2023-04-25T20:35:42;6.00;;;4.30;;
17890;SDS011;9071;48.220;14.480;2023-04-25T20:40:45;14.90;;;4.80;;
17890;SDS011;9071;48.220;14.480;2023-04-25T20:45:47;5.13;;;3.73;;
17890;SDS011;9071;48.220;14.480;2023-04-25T20:50:51;4.93;;;3.60;;
17890;SDS011;9071;48.220;14.480;2023-04-25T20:55:53;7.10;;;4.70;;
17890;SDS011;9071;48.220;14.480;2023-04-25T21:00:55;6.17;;;4.40;;
17890;SDS011;9071;48.220;14.480;2023-04-25T21:05:58;6.67;;;3.93;;
17890;SDS011;9071;48.220;14.480;2023-04-25T21:11:01;6.83;;;3.93;;
17890;SDS011;9071;48.220;14.480;2023-04-25T21:16:03;5.03;;;3.67;;
17890;SDS011;9071;48.220;14.480;2023-04-25T21:21:07;6.67;;;4.33;;
17890;SDS011;9071;48.220;14.480;2023-04-25T21:26:10;5.80;;;4.00;;
17890;SDS011;9071;48.220;14.480;2023-04-25T21:31:12;8.57;;;3.73;;
17890;SDS011;9071;48.220;14.480;2023-04-25T21:36:15;5.70;;;4.27;;
17890;SDS011;9071;48.220;14.480;2023-04-25T21:41:17;5.30;;;3.80;;
17890;SDS011;9071;48.220;14.480;2023-04-25T21:46:19;7.73;;;4.00;;
17890;SDS011;9071;48.220;14.480;2023-04-25T21:51:24;8.43;;;4.37;;
17890;SDS011;9071;48.220;14.480;2023-04-25T21:56:27;6.93;;;4.50;;
17890;SDS011;9071;48.220;14.480;2023-04-25T22:01:29;6.73;;;4.80;;
17890;SDS011;9071;48.220;14.480;2023-04-25T22:06:33;9.93;;;5.13;;
17890;SDS011;9071;48.220;14.480;2023-04-25T22:11:35;9.17;;;5.30;;
17890;SDS011;9071;48.220;14.480;2023-04-25T22:16:37;7.10;;;5.17;;
17890;SDS011;9071;48.220;14.480;2023-04-25T22:21:41;11.17;;;5.63;;
17890;SDS011;9071;48.220;14.480;2023-04-25T22:26:43;8.97;;;5.63;;
17890;SDS011;9071;48.220;14.480;2023-04-25T22:31:46;9.40;;;5.93;;
17890;SDS011;9071;48.220;14.480;2023-04-25T22:36:49;11.93;;;6.10;;
17890;SDS011;9071;48.220;14.480;2023-04-25T22:41:52;9.87;;;6.43;;
17890;SDS011;9071;48.220;14.480;2023-04-25T22:46:54;10.80;;;7.17;;
17890;SDS011;9071;48.220;14.480;2023-04-25T22:51:57;10.70;;;7.00;;
17890;SDS011;9071;48.220;14.480;2023-04-25T22:57:00;12.80;;;7.73;;
17890;SDS011;9071;48.220;14.480;2023-04-25T23:02:02;12.27;;;8.50;;
17890;SDS011;9071;48.220;14.480;2023-04-25T23:07:06;13.07;;;7.80;;
17890;SDS011;9071;48.220;14.480;2023-04-25T23:12:07;11.67;;;8.30;;
17890;SDS011;9071;48.220;14.480;2023-04-25T23:17:09;10.50;;;7.97;;
17890;SDS011;9071;48.220;14.480;2023-04-25T23:22:13;14.37;;;9.20;;
17890;SDS011;9071;48.220;14.480;2023-04-25T23:27:15;13.30;;;8.30;;
17890;SDS011;9071;48.220;14.480;2023-04-25T23:32:17;12.83;;;8.60;;
17890;SDS011;9071;48.220;14.480;2023-04-25T23:37:20;15.60;;;10.07;;
17890;SDS011;9071;48.220;14.480;2023-04-25T23:42:22;12.47;;;8.73;;
17890;SDS011;9071;48.220;14.480;2023-04-25T23:47:24;14.00;;;9.57;;
17890;SDS011;9071;48.220;14.480;2023-04-25T23:52:28;15.70;;;10.63;;
17890;SDS011;9071;48.220;14.480;2023-04-25T23:57:30;16.60;;;10.17;;
